createdAt,value
2023-02-16T00:00:22.610Z,99.90
2023-02-16T00:02:49.499Z,99.90
2023-02-16T00:05:29.665Z,99.90
2023-02-16T00:07:57.972Z,99.90
2023-02-16T00:10:26.585Z,99.90
2023-02-16T00:13:12.478Z,99.90
2023-02-16T00:15:40.253Z,99.90
2023-02-16T00:18:33.540Z,99.90
2023-02-16T00:21:00.305Z,99.90
2023-02-16T00:23:27.088Z,99.90
2023-02-16T00:25:53.860Z,99.90
2023-02-16T00:28:21.214Z,99.90
2023-02-16T00:30:50.197Z,99.90
2023-02-16T00:33:20.365Z,99.90
2023-02-16T00:35:47.785Z,99.90
2023-02-16T00:38:14.712Z,99.90
2023-02-16T00:40:42.851Z,99.90
2023-02-16T00:43:26.378Z,99.90
2023-02-16T00:45:53.720Z,99.90
2023-02-16T00:48:20.877Z,99.90
2023-02-16T00:50:47.739Z,99.90
2023-02-16T00:53:14.840Z,99.90
2023-02-16T00:55:43.124Z,99.90
2023-02-16T00:58:26.677Z,99.90
2023-02-16T01:01:02.351Z,99.90
2023-02-16T01:03:29.882Z,99.90
2023-02-16T01:06:15.214Z,99.90
2023-02-16T01:09:01.377Z,99.90
2023-02-16T01:11:28.894Z,99.90
2023-02-16T01:13:57.030Z,99.90
2023-02-16T01:16:26.776Z,99.90
2023-02-16T01:18:54.380Z,99.90
2023-02-16T01:21:24.444Z,99.90
2023-02-16T01:23:51.237Z,99.90
2023-02-16T01:26:19.590Z,99.90
2023-02-16T01:28:46.856Z,99.90
2023-02-16T01:31:15.306Z,99.90
2023-02-16T01:33:42.907Z,99.90
2023-02-16T01:36:39.822Z,99.90
2023-02-16T01:39:07.895Z,99.90
2023-02-16T01:41:37.640Z,99.90
2023-02-16T01:44:18.286Z,99.90
2023-02-16T01:47:19.216Z,99.90
2023-02-16T01:49:46.000Z,99.90
2023-02-16T01:52:41.374Z,99.90
2023-02-16T01:55:08.181Z,99.90
2023-02-16T01:57:46.544Z,99.90
2023-02-16T02:00:30.124Z,99.90
2023-02-16T02:03:19.852Z,99.90
2023-02-16T02:05:49.162Z,99.90
2023-02-16T02:08:38.186Z,99.90
2023-02-16T02:11:12.035Z,99.90
2023-02-16T02:13:47.486Z,99.90
2023-02-16T02:16:19.264Z,99.90
2023-02-16T02:18:46.165Z,99.90
2023-02-16T02:21:49.386Z,99.90
2023-02-16T02:24:41.320Z,99.90
2023-02-16T02:27:19.977Z,99.90
2023-02-16T02:29:52.668Z,99.90
2023-02-16T02:32:38.556Z,99.90
2023-02-16T02:35:08.519Z,99.90
2023-02-16T02:37:35.265Z,99.90
2023-02-16T02:40:34.132Z,99.90
2023-02-16T02:43:03.861Z,99.90
2023-02-16T02:45:40.903Z,99.90
2023-02-16T02:48:07.715Z,99.90
2023-02-16T02:50:37.276Z,99.90
2023-02-16T02:53:12.054Z,99.90
2023-02-16T02:56:04.837Z,99.90
2023-02-16T02:58:53.549Z,99.90
2023-02-16T03:01:21.307Z,99.90
2023-02-16T03:03:54.806Z,99.90
2023-02-16T03:06:30.034Z,99.90
2023-02-16T03:09:04.526Z,99.90
2023-02-16T03:11:49.796Z,99.90
2023-02-16T03:14:22.322Z,99.90
2023-02-16T03:17:13.781Z,99.90
2023-02-16T03:20:01.552Z,99.90
2023-02-16T03:22:48.376Z,99.90
2023-02-16T03:25:34.492Z,99.90
2023-02-16T03:28:23.495Z,99.90
2023-02-16T03:30:51.652Z,99.90
2023-02-16T03:33:19.202Z,99.90
2023-02-16T03:35:46.663Z,99.90
2023-02-16T03:38:13.918Z,99.90
2023-02-16T03:40:43.100Z,99.90
2023-02-16T03:43:09.959Z,99.90
2023-02-16T03:45:40.243Z,99.90
2023-02-16T03:48:07.744Z,99.90
2023-02-16T03:50:34.997Z,99.90
2023-02-16T03:53:08.163Z,99.90
2023-02-16T03:55:37.997Z,99.90
2023-02-16T03:58:06.539Z,99.90
2023-02-16T04:00:34.975Z,99.90
2023-02-16T04:03:02.857Z,99.90
2023-02-16T04:05:29.830Z,99.90
2023-02-16T04:07:56.590Z,99.90
2023-02-16T04:10:23.675Z,99.90
2023-02-16T04:12:50.877Z,99.90
2023-02-16T04:15:20.796Z,99.90
2023-02-16T04:17:48.091Z,99.90
2023-02-16T04:20:18.003Z,99.90
2023-02-16T04:22:45.952Z,99.90
2023-02-16T04:25:13.337Z,99.90
2023-02-16T04:27:41.236Z,99.90
2023-02-16T04:30:11.886Z,99.90
2023-02-16T04:32:38.963Z,99.90
2023-02-16T04:35:06.347Z,99.90
2023-02-16T04:37:33.273Z,99.90
2023-02-16T04:40:00.259Z,99.90
2023-02-16T04:42:27.048Z,99.90
2023-02-16T04:44:53.799Z,99.90
2023-02-16T04:47:21.882Z,99.90
2023-02-16T04:49:50.333Z,99.90
2023-02-16T04:52:17.723Z,99.90
2023-02-16T04:54:44.569Z,99.90
2023-02-16T04:57:12.575Z,99.90
2023-02-16T04:59:39.343Z,99.90
2023-02-16T05:02:06.134Z,99.90
2023-02-16T05:04:33.338Z,99.90
2023-02-16T05:07:00.218Z,99.90
2023-02-16T05:09:27.006Z,99.90
2023-02-16T05:12:12.226Z,99.90
2023-02-16T05:14:41.946Z,99.90
2023-02-16T05:17:11.363Z,99.90
2023-02-16T05:19:38.278Z,99.90
2023-02-16T05:22:05.209Z,99.90
2023-02-16T05:24:31.988Z,99.90
2023-02-16T05:26:58.797Z,99.90
2023-02-16T05:29:25.552Z,99.90
2023-02-16T05:31:52.642Z,99.90
2023-02-16T05:34:19.637Z,99.90
2023-02-16T05:36:46.483Z,99.90
2023-02-16T05:39:13.305Z,99.90
2023-02-16T05:41:40.182Z,99.90
2023-02-16T05:44:07.792Z,99.90
2023-02-16T05:46:37.336Z,99.90
2023-02-16T05:49:05.322Z,99.90
2023-02-16T05:51:32.229Z,99.90
2023-02-16T05:53:59.346Z,99.90
2023-02-16T05:56:26.821Z,99.90
2023-02-16T05:58:53.909Z,99.90
2023-02-16T06:01:21.055Z,99.90
2023-02-16T06:03:48.212Z,99.90
2023-02-16T06:06:15.103Z,99.90
2023-02-16T06:08:41.930Z,99.90
2023-02-16T06:11:28.690Z,99.90
2023-02-16T06:13:59.501Z,99.90
2023-02-16T06:16:28.030Z,99.90
2023-02-16T06:18:55.316Z,99.90
2023-02-16T06:21:22.993Z,99.90
2023-02-16T06:23:49.927Z,99.90
2023-02-16T06:26:17.303Z,99.90
2023-02-16T06:28:44.152Z,99.90
2023-02-16T06:31:11.470Z,99.90
2023-02-16T06:33:38.576Z,99.90
2023-02-16T06:36:06.014Z,99.90
2023-02-16T06:38:32.867Z,99.90
2023-02-16T06:40:59.672Z,99.90
2023-02-16T06:43:26.541Z,99.90
2023-02-16T06:45:53.306Z,99.90
2023-02-16T06:48:20.142Z,99.90
2023-02-16T06:50:46.960Z,99.90
2023-02-16T06:53:13.925Z,99.90
2023-02-16T06:55:40.770Z,99.90
2023-02-16T06:58:08.250Z,99.90
2023-02-16T07:00:35.150Z,99.90
2023-02-16T07:03:02.699Z,99.90
2023-02-16T07:05:29.683Z,99.90
2023-02-16T07:07:56.494Z,99.90
2023-02-16T07:10:23.415Z,99.90
2023-02-16T07:12:50.325Z,99.90
2023-02-16T07:15:17.414Z,99.90
2023-02-16T07:17:44.218Z,99.90
2023-02-16T07:20:12.762Z,99.90
2023-02-16T07:22:39.910Z,99.90
2023-02-16T07:25:07.199Z,99.90
2023-02-16T07:27:34.020Z,99.90
2023-02-16T07:30:01.015Z,99.90
2023-02-16T07:32:29.739Z,99.90
2023-02-16T07:34:56.629Z,99.90
2023-02-16T07:37:23.883Z,99.90
2023-02-16T07:39:50.723Z,99.90
2023-02-16T07:42:17.694Z,99.90
2023-02-16T07:44:44.513Z,99.90
2023-02-16T07:47:13.434Z,99.90
2023-02-16T07:49:42.613Z,99.90
2023-02-16T07:52:09.423Z,99.90
2023-02-16T07:54:40.552Z,99.90
2023-02-16T07:57:07.657Z,99.90
2023-02-16T07:59:34.957Z,99.90
2023-02-16T08:02:01.942Z,99.90
2023-02-16T08:04:28.828Z,99.90
2023-02-16T08:06:55.626Z,99.90
2023-02-16T08:09:22.550Z,99.90
2023-02-16T08:11:49.372Z,99.90
2023-02-16T08:14:16.640Z,99.90
2023-02-16T08:16:43.707Z,99.90
2023-02-16T08:19:13.172Z,99.90
2023-02-16T08:21:40.034Z,99.90
2023-02-16T08:24:08.654Z,99.90
2023-02-16T08:26:41.448Z,99.90
2023-02-16T08:29:13.307Z,99.90
2023-02-16T08:31:40.332Z,99.90
2023-02-16T08:34:07.983Z,99.90
2023-02-16T08:36:38.625Z,99.90
2023-02-16T08:39:08.879Z,99.90
2023-02-16T08:41:37.157Z,99.90
2023-02-16T08:44:06.133Z,99.90
2023-02-16T08:46:34.926Z,99.90
2023-02-16T08:49:02.213Z,99.90
2023-02-16T08:51:32.144Z,99.90
2023-02-16T08:54:00.286Z,98.80
2023-02-16T08:56:29.712Z,97.50
2023-02-16T08:58:57.414Z,97.40
2023-02-16T09:01:24.388Z,97.70
2023-02-16T09:03:52.006Z,99.90
2023-02-16T09:06:21.490Z,99.90
2023-02-16T09:08:56.295Z,99.90
2023-02-16T09:11:24.594Z,99.10
2023-02-16T09:13:51.944Z,97.90
2023-02-16T09:16:22.633Z,96.50
2023-02-16T09:18:50.887Z,95.80
2023-02-16T09:21:19.788Z,96.20
2023-02-16T09:23:48.431Z,94.80
2023-02-16T09:26:17.753Z,92.00
2023-02-16T09:28:45.896Z,86.40
2023-02-16T09:31:25.859Z,84.50
2023-02-16T09:33:56.218Z,77.60
2023-02-16T09:36:23.795Z,71.80
2023-02-16T09:38:51.457Z,70.00
2023-02-16T09:41:26.160Z,67.30
2023-02-16T09:44:13.305Z,63.90
2023-02-16T09:46:42.835Z,59.80
2023-02-16T09:49:25.230Z,60.40
2023-02-16T09:52:23.144Z,59.80
2023-02-16T09:54:57.717Z,60.00
2023-02-16T09:57:46.262Z,57.80
2023-02-16T10:00:34.324Z,57.30
2023-02-16T10:03:27.261Z,55.10
2023-02-16T10:06:18.625Z,52.90
2023-02-16T10:09:07.601Z,52.50
2023-02-16T10:11:46.864Z,50.10
2023-02-16T10:14:31.941Z,50.90
2023-02-16T10:17:06.734Z,52.30
2023-02-16T10:19:47.499Z,52.00
2023-02-16T10:22:18.192Z,50.70
2023-02-16T10:25:09.946Z,50.70
2023-02-16T10:27:42.370Z,48.10
2023-02-16T10:30:19.978Z,48.10
2023-02-16T10:33:14.395Z,48.30
2023-02-16T10:35:58.539Z,47.60
2023-02-16T10:38:32.130Z,46.60
2023-02-16T10:41:04.647Z,45.30
2023-02-16T10:43:43.871Z,44.10
2023-02-16T10:46:23.912Z,43.50
2023-02-16T10:48:55.154Z,42.50
2023-02-16T10:51:28.079Z,42.70
2023-02-16T10:54:05.819Z,42.30
2023-02-16T10:56:59.842Z,42.20
2023-02-16T10:59:38.685Z,42.70
2023-02-16T11:02:24.785Z,43.50
2023-02-16T11:04:53.760Z,44.70
2023-02-16T11:07:27.066Z,45.00
2023-02-16T11:09:55.941Z,45.00
2023-02-16T11:12:30.981Z,44.60
2023-02-16T11:15:19.811Z,45.80
2023-02-16T11:18:00.128Z,44.50
2023-02-16T11:20:46.645Z,43.70
2023-02-16T11:23:37.353Z,42.90
2023-02-16T11:26:12.203Z,42.90
2023-02-16T11:28:45.291Z,41.60
2023-02-16T11:31:32.270Z,41.40
2023-02-16T11:34:40.844Z,41.20
2023-02-16T11:37:22.506Z,39.30
2023-02-16T11:39:53.988Z,38.00
2023-02-16T11:42:54.022Z,37.10
2023-02-16T11:45:32.988Z,36.50
2023-02-16T11:48:14.094Z,37.10
2023-02-16T11:50:56.740Z,37.70
2023-02-16T11:53:35.914Z,37.70
2023-02-16T11:56:27.471Z,37.40
2023-02-16T11:59:08.527Z,37.70
2023-02-16T12:02:09.286Z,37.80
2023-02-16T12:04:51.129Z,37.90
2023-02-16T12:07:42.203Z,37.50
2023-02-16T12:10:26.107Z,37.20
2023-02-16T12:13:17.397Z,35.80
2023-02-16T12:16:00.066Z,35.70
2023-02-16T12:18:32.509Z,35.10
2023-02-16T12:21:28.285Z,35.10
2023-02-16T12:24:09.405Z,34.60
2023-02-16T12:26:53.813Z,33.80
2023-02-16T12:29:35.732Z,34.00
2023-02-16T12:32:33.144Z,34.20
2023-02-16T12:35:14.887Z,32.80
2023-02-16T12:38:09.008Z,32.60
2023-02-16T12:41:15.550Z,33.30
2023-02-16T12:43:46.992Z,32.70
2023-02-16T12:46:19.751Z,32.30
2023-02-16T12:48:57.412Z,31.70
2023-02-16T12:51:30.903Z,31.70
2023-02-16T12:53:57.785Z,31.10
2023-02-16T12:56:39.242Z,30.60
2023-02-16T12:59:14.428Z,31.20
2023-02-16T13:01:42.384Z,30.70
2023-02-16T13:04:27.145Z,31.00
2023-02-16T13:07:26.444Z,30.70
2023-02-16T13:10:23.679Z,30.10
2023-02-16T13:13:06.733Z,30.00
2023-02-16T13:15:53.037Z,30.10
2023-02-16T13:18:21.583Z,30.00
2023-02-16T13:20:56.641Z,30.00
2023-02-16T13:23:26.391Z,30.00
2023-02-16T13:26:14.917Z,29.80
2023-02-16T13:29:02.336Z,29.80
2023-02-16T13:31:53.655Z,30.00
2023-02-16T13:34:35.772Z,29.90
2023-02-16T13:37:31.505Z,29.30
2023-02-16T13:40:27.255Z,29.70
2023-02-16T13:43:12.421Z,29.60
2023-02-16T13:45:42.733Z,29.80
2023-02-16T13:48:33.424Z,30.00
2023-02-16T13:51:07.003Z,30.40
2023-02-16T13:53:38.733Z,30.60
2023-02-16T13:56:24.354Z,30.30
2023-02-16T13:58:52.974Z,30.90
2023-02-16T14:01:31.893Z,30.90
2023-02-16T14:04:02.891Z,31.10
2023-02-16T14:06:37.825Z,31.20
2023-02-16T14:09:11.156Z,31.20
2023-02-16T14:12:02.213Z,31.00
2023-02-16T14:14:47.985Z,31.30
2023-02-16T14:17:21.906Z,31.40
2023-02-16T14:20:09.103Z,31.10
2023-02-16T14:23:00.193Z,31.00
2023-02-16T14:25:37.241Z,31.00
2023-02-16T14:28:19.293Z,30.80
2023-02-16T14:30:51.140Z,31.10
2023-02-16T14:33:39.943Z,31.40
2023-02-16T14:36:12.626Z,31.30
2023-02-16T14:38:44.153Z,31.20
2023-02-16T14:41:32.818Z,30.40
2023-02-16T14:43:59.546Z,30.00
2023-02-16T14:46:50.761Z,29.90
2023-02-16T14:49:51.009Z,30.20
2023-02-16T14:52:37.346Z,30.20
2023-02-16T14:55:36.447Z,31.10
2023-02-16T14:58:16.026Z,33.10
2023-02-16T15:00:58.357Z,34.90
2023-02-16T15:03:26.530Z,35.90
2023-02-16T15:05:59.242Z,36.80
2023-02-16T15:08:34.898Z,37.50
2023-02-16T15:11:29.866Z,38.10
2023-02-16T15:14:07.996Z,38.40
2023-02-16T15:16:37.929Z,37.70
2023-02-16T15:19:11.044Z,36.50
2023-02-16T15:21:37.986Z,35.30
2023-02-16T15:24:06.052Z,35.50
2023-02-16T15:26:35.735Z,35.00
2023-02-16T15:29:16.599Z,34.50
2023-02-16T15:31:44.221Z,34.20
2023-02-16T15:34:26.331Z,35.00
2023-02-16T15:36:53.132Z,35.90
2023-02-16T15:39:38.462Z,35.20
2023-02-16T15:42:21.598Z,34.50
2023-02-16T15:44:49.122Z,34.60
2023-02-16T15:47:21.507Z,34.90
2023-02-16T15:49:48.652Z,35.80
2023-02-16T15:52:33.599Z,36.90
2023-02-16T15:55:03.286Z,37.50
2023-02-16T15:57:32.630Z,38.20
2023-02-16T16:00:23.227Z,39.20
2023-02-16T16:02:52.918Z,39.80
2023-02-16T16:05:36.268Z,40.30
2023-02-16T16:08:03.999Z,40.60
2023-02-16T16:10:36.879Z,40.50
2023-02-16T16:13:06.749Z,40.60
2023-02-16T16:15:43.923Z,40.80
2023-02-16T16:18:40.301Z,41.20
2023-02-16T16:21:23.662Z,41.60
2023-02-16T16:24:00.006Z,42.00
2023-02-16T16:26:29.554Z,42.50
2023-02-16T16:28:56.995Z,42.70
2023-02-16T16:31:23.833Z,43.00
2023-02-16T16:33:57.216Z,43.10
2023-02-16T16:36:35.002Z,43.30
2023-02-16T16:39:17.189Z,43.80
2023-02-16T16:42:20.434Z,44.00
2023-02-16T16:44:56.857Z,44.30
2023-02-16T16:47:36.789Z,44.80
2023-02-16T16:50:26.654Z,45.20
2023-02-16T16:52:55.059Z,45.30
2023-02-16T16:55:27.144Z,45.60
2023-02-16T16:58:00.136Z,46.00
2023-02-16T17:00:34.617Z,46.10
2023-02-16T17:03:02.961Z,46.40
2023-02-16T17:05:29.832Z,46.60
2023-02-16T17:07:56.694Z,46.80
2023-02-16T17:10:24.456Z,47.00
2023-02-16T17:12:54.768Z,48.20
2023-02-16T17:15:36.510Z,48.40
2023-02-16T17:18:04.235Z,48.60
2023-02-16T17:20:31.173Z,48.90
2023-02-16T17:23:04.385Z,49.10
2023-02-16T17:25:33.075Z,49.50
2023-02-16T17:28:00.514Z,49.60
2023-02-16T17:30:27.570Z,50.00
2023-02-16T17:32:54.383Z,50.30
2023-02-16T17:35:21.279Z,50.80
2023-02-16T17:37:48.241Z,50.90
2023-02-16T17:40:20.935Z,51.10
2023-02-16T17:42:49.631Z,51.60
2023-02-16T17:45:18.576Z,51.80
2023-02-16T17:47:46.078Z,52.00
2023-02-16T17:50:15.064Z,52.60
2023-02-16T17:52:43.699Z,52.30
2023-02-16T17:55:11.685Z,52.40
2023-02-16T17:57:39.139Z,52.00
2023-02-16T18:00:13.152Z,52.50
2023-02-16T18:02:39.914Z,51.60
2023-02-16T18:05:07.127Z,50.60
2023-02-16T18:07:33.975Z,50.40
2023-02-16T18:10:00.752Z,50.10
2023-02-16T18:12:28.588Z,49.70
2023-02-16T18:14:55.400Z,49.60
2023-02-16T18:17:22.240Z,49.70
2023-02-16T18:19:49.011Z,49.70
2023-02-16T18:22:15.863Z,49.80
2023-02-16T18:24:44.393Z,49.90
2023-02-16T18:27:11.214Z,49.90
2023-02-16T18:29:38.068Z,49.90
2023-02-16T18:32:05.269Z,49.70
2023-02-16T18:34:33.400Z,49.80
2023-02-16T18:37:00.359Z,49.50
2023-02-16T18:39:27.172Z,49.70
2023-02-16T18:41:53.974Z,49.80
2023-02-16T18:44:20.718Z,50.00
2023-02-16T18:46:47.536Z,50.20
2023-02-16T18:49:14.364Z,50.20
2023-02-16T18:51:41.127Z,50.40
2023-02-16T18:54:07.983Z,50.60
2023-02-16T18:56:36.554Z,50.80
2023-02-16T18:59:04.238Z,50.70
2023-02-16T19:01:33.272Z,50.90
2023-02-16T19:04:01.466Z,51.00
2023-02-16T19:06:28.736Z,51.00
2023-02-16T19:08:56.444Z,51.20
2023-02-16T19:11:23.259Z,51.70
2023-02-16T19:13:50.271Z,51.60
2023-02-16T19:16:17.753Z,51.70
2023-02-16T19:18:44.651Z,51.90
2023-02-16T19:21:14.108Z,52.10
2023-02-16T19:23:41.308Z,52.20
2023-02-16T19:26:13.146Z,52.10
2023-02-16T19:28:41.437Z,52.10
2023-02-16T19:31:15.498Z,52.10
2023-02-16T19:33:42.369Z,52.20
2023-02-16T19:36:10.912Z,52.40
2023-02-16T19:38:38.311Z,52.50
2023-02-16T19:41:13.940Z,52.80
2023-02-16T19:43:42.015Z,53.10
2023-02-16T19:46:10.654Z,53.10
2023-02-16T19:48:38.172Z,53.40
2023-02-16T19:51:06.521Z,53.60
2023-02-16T19:53:33.987Z,53.90
2023-02-16T19:56:03.409Z,54.10
2023-02-16T19:58:30.276Z,54.10
2023-02-16T20:00:57.076Z,54.30
2023-02-16T20:03:23.904Z,54.50
2023-02-16T20:05:50.659Z,54.70
2023-02-16T20:08:17.459Z,54.90
2023-02-16T20:10:45.050Z,55.10
2023-02-16T20:13:11.797Z,55.10
2023-02-16T20:15:38.673Z,55.40
2023-02-16T20:18:07.321Z,55.80
2023-02-16T20:20:35.476Z,55.90
2023-02-16T20:23:02.244Z,56.00
2023-02-16T20:25:29.057Z,56.10
2023-02-16T20:27:56.631Z,56.30
2023-02-16T20:30:25.362Z,56.40
2023-02-16T20:32:52.259Z,57.20
2023-02-16T20:35:19.262Z,56.70
2023-02-16T20:37:46.097Z,57.00
2023-02-16T20:40:13.379Z,57.20
2023-02-16T20:42:40.159Z,57.30
2023-02-16T20:45:07.506Z,57.50
2023-02-16T20:47:34.434Z,57.80
2023-02-16T20:50:01.254Z,58.10
2023-02-16T20:52:28.086Z,58.40
2023-02-16T20:54:54.883Z,58.60
2023-02-16T20:57:27.182Z,58.90
2023-02-16T20:59:55.379Z,59.30
2023-02-16T21:02:22.369Z,59.60
2023-02-16T21:04:49.230Z,59.80
2023-02-16T21:07:16.028Z,60.00
2023-02-16T21:09:42.912Z,60.40
2023-02-16T21:12:09.810Z,60.70
2023-02-16T21:14:36.632Z,61.10
2023-02-16T21:17:03.490Z,61.40
2023-02-16T21:19:30.549Z,61.70
2023-02-16T21:21:57.352Z,62.20
2023-02-16T21:24:24.340Z,62.60
2023-02-16T21:26:51.141Z,62.80
2023-02-16T21:29:17.974Z,63.20
2023-02-16T21:31:44.839Z,63.40
2023-02-16T21:34:11.930Z,63.80
2023-02-16T21:36:38.940Z,64.30
2023-02-16T21:39:06.019Z,64.50
2023-02-16T21:41:33.208Z,64.50
2023-02-16T21:44:09.266Z,64.70
2023-02-16T21:46:38.033Z,64.90
2023-02-16T21:49:07.344Z,65.10
2023-02-16T21:51:39.708Z,65.10
2023-02-16T21:54:08.370Z,65.20
2023-02-16T21:56:39.348Z,65.10
2023-02-16T21:59:08.922Z,65.20
2023-02-16T22:01:39.482Z,65.50
2023-02-16T22:04:06.672Z,65.60
2023-02-16T22:06:39.743Z,65.70
2023-02-16T22:09:11.973Z,66.00
2023-02-16T22:11:39.217Z,66.40
2023-02-16T22:14:06.826Z,66.50
2023-02-16T22:16:36.246Z,66.80
2023-02-16T22:19:07.443Z,66.80
2023-02-16T22:21:39.588Z,67.00
2023-02-16T22:24:07.393Z,67.20
2023-02-16T22:26:35.762Z,67.20
2023-02-16T22:29:07.379Z,67.30
2023-02-16T22:31:35.030Z,67.20
2023-02-16T22:34:07.867Z,67.00
2023-02-16T22:36:36.620Z,67.20
2023-02-16T22:39:04.475Z,66.80
2023-02-16T22:41:31.461Z,67.00
2023-02-16T22:44:01.655Z,66.70
2023-02-16T22:46:29.721Z,66.50
2023-02-16T22:49:00.944Z,66.40
2023-02-16T22:51:29.846Z,66.40
2023-02-16T22:53:59.076Z,66.10
2023-02-16T22:56:27.084Z,65.90
2023-02-16T22:58:57.343Z,65.90
2023-02-16T23:01:25.366Z,66.00
2023-02-16T23:03:56.666Z,66.00
2023-02-16T23:06:29.355Z,65.80
2023-02-16T23:08:59.745Z,65.80
2023-02-16T23:11:27.103Z,65.50
2023-02-16T23:13:53.915Z,65.60
2023-02-16T23:16:23.103Z,65.80
2023-02-16T23:18:50.862Z,65.60
2023-02-16T23:21:22.763Z,65.50
2023-02-16T23:23:50.867Z,65.60
2023-02-16T23:26:19.759Z,65.80
2023-02-16T23:28:51.115Z,65.80
2023-02-16T23:31:18.736Z,66.00
2023-02-16T23:33:45.628Z,65.70
2023-02-16T23:36:12.474Z,65.80
2023-02-16T23:38:39.375Z,66.20
2023-02-16T23:41:12.291Z,66.10
2023-02-16T23:43:39.424Z,66.00
2023-02-16T23:46:07.381Z,66.20
2023-02-16T23:48:34.725Z,66.60
2023-02-16T23:51:01.952Z,66.70
2023-02-16T23:53:29.273Z,67.00
2023-02-16T23:56:14.849Z,67.30
2023-02-16T23:58:43.068Z,67.40
